Time;durP1;ratioP1;P1;durP2;ratioP2;P2;SDS_P1;SDS_P2;PMS_P1;PMS_P2;Temp;Humidity;BMP_temperature;BMP_pressure;BME280_temperature;BME280_humidity;BME280_pressure;Samples;Min_cycle;Max_cycle;Signal;HPM_P1;HPM_P2
2023/03/16 00:02:09;;;;;;;0.10;0.10;;;6.50;99.90;;;;;;5014676;28;20054;-59
2023/03/16 00:04:36;;;;;;;0.20;0.20;;;6.40;99.90;;;;;;5024826;28;20077;-59
2023/03/16 00:07:03;;;;;;;0.32;0.32;;;6.40;99.90;;;;;;5018141;28;20041;-59
2023/03/16 00:09:32;;;;;;;0.73;0.73;;;6.50;99.90;;;;;;5026718;28;20033;-59
2023/03/16 00:12:03;;;;;;;0.10;0.10;;;6.40;99.90;;;;;;5029153;28;20473;-59
2023/03/16 00:14:31;;;;;;;0.10;0.10;;;6.40;99.90;;;;;;5028464;28;20045;-59
2023/03/16 00:16:57;;;;;;;0.10;0.10;;;6.40;99.90;;;;;;5024002;28;20169;-59
2023/03/16 00:19:22;;;;;;;0.10;0.10;;;6.40;99.90;;;;;;5009378;28;20501;-59
2023/03/16 00:21:51;;;;;;;0.10;0.10;;;6.40;99.90;;;;;;5021223;28;20512;-59
2023/03/16 00:24:18;;;;;;;0.10;0.10;;;6.50;99.90;;;;;;5027096;28;20045;-59
2023/03/16 00:26:44;;;;;;;0.10;0.10;;;6.50;99.90;;;;;;5029417;28;20124;-59
2023/03/16 00:29:10;;;;;;;0.10;0.10;;;6.40;99.90;;;;;;5028070;28;20049;-59
2023/03/16 00:31:37;;;;;;;0.25;0.25;;;6.40;99.90;;;;;;5028708;28;20417;-59
2023/03/16 00:34:03;;;;;;;0.17;0.17;;;6.40;99.90;;;;;;5028511;28;20124;-59
2023/03/16 00:36:29;;;;;;;0.82;0.82;;;6.30;99.90;;;;;;5023678;28;20128;-59
2023/03/16 00:38:54;;;;;;;0.13;0.13;;;6.40;99.90;;;;;;5025826;28;20056;-59
2023/03/16 00:41:21;;;;;;;0.15;0.15;;;6.30;99.90;;;;;;5027594;28;20124;-59
2023/03/16 00:43:47;;;;;;;0.10;0.10;;;6.30;99.90;;;;;;5028681;28;20055;-59
2023/03/16 00:46:17;;;;;;;0.10;0.10;;;6.40;99.90;;;;;;5026774;28;20413;-59
2023/03/16 00:48:45;;;;;;;1.20;1.05;;;6.30;99.90;;;;;;5027380;28;20056;-59
2023/03/16 00:51:14;;;;;;;0.32;0.32;;;6.20;99.90;;;;;;5026968;28;20072;-60
2023/03/16 00:53:42;;;;;;;7.53;0.85;;;6.20;99.90;;;;;;5025573;28;20054;-61
2023/03/16 00:56:08;;;;;;;1.13;0.63;;;6.20;99.90;;;;;;5027388;28;20400;-59
2023/03/16 00:58:36;;;;;;;0.10;0.10;;;6.20;99.90;;;;;;5027343;28;20485;-59
2023/03/16 01:01:03;;;;;;;0.47;0.47;;;6.20;99.90;;;;;;5027760;28;20045;-59
2023/03/16 01:03:29;;;;;;;0.00;0.00;;;6.20;99.90;;;;;;5027571;28;20055;-59
2023/03/16 01:05:58;;;;;;;2.05;1.65;;;6.20;99.90;;;;;;5024527;28;20034;-59
2023/03/16 01:08:26;;;;;;;0.10;0.10;;;6.10;99.90;;;;;;5022095;28;20048;-59
2023/03/16 01:10:53;;;;;;;0.10;0.10;;;6.00;99.90;;;;;;5026670;28;20049;-59
2023/03/16 01:13:20;;;;;;;0.82;0.80;;;6.10;99.90;;;;;;5025777;28;20165;-59
2023/03/16 01:15:46;;;;;;;0.10;0.10;;;6.10;99.90;;;;;;5019991;28;20037;-59
2023/03/16 01:18:12;;;;;;;0.10;0.10;;;6.10;99.90;;;;;;5026226;28;20095;-59
2023/03/16 01:20:38;;;;;;;0.55;0.47;;;6.10;99.90;;;;;;5019419;28;20056;-59
2023/03/16 01:23:04;;;;;;;0.10;0.10;;;6.10;99.90;;;;;;5026639;28;20045;-59
2023/03/16 01:25:31;;;;;;;0.38;0.38;;;6.10;99.90;;;;;;5028097;28;20465;-59
2023/03/16 01:27:57;;;;;;;0.00;0.00;;;6.00;99.90;;;;;;5027020;28;20052;-59
2023/03/16 01:30:22;;;;;;;0.10;0.10;;;6.00;99.90;;;;;;5026804;28;20045;-59
2023/03/16 01:32:48;;;;;;;0.10;0.10;;;6.00;99.90;;;;;;5028428;28;20045;-59
2023/03/16 01:35:14;;;;;;;0.43;0.43;;;6.00;99.90;;;;;;5026762;28;20049;-59
2023/03/16 01:37:40;;;;;;;0.20;0.20;;;6.00;99.90;;;;;;5026951;28;20440;-59
2023/03/16 01:40:07;;;;;;;0.10;0.10;;;6.00;99.90;;;;;;5026664;28;20496;-59
2023/03/16 01:42:44;;;;;;;0.30;0.30;;;6.00;99.90;;;;;;5027320;28;20061;-59
2023/03/16 01:45:46;;;;;;;0.10;0.10;;;6.00;99.90;;;;;;5027958;28;20575;-59
2023/03/16 01:48:13;;;;;;;0.10;0.10;;;6.00;99.90;;;;;;5023870;28;20494;-59
2023/03/16 01:50:41;;;;;;;0.45;0.45;;;6.10;99.90;;;;;;5021004;28;20053;-59
2023/03/16 01:53:07;;;;;;;0.10;0.10;;;6.00;99.90;;;;;;5027975;28;20042;-59
2023/03/16 01:55:33;;;;;;;0.20;0.20;;;6.10;99.90;;;;;;5026204;28;20041;-59
2023/03/16 01:57:58;;;;;;;0.38;0.38;;;6.10;99.90;;;;;;5022889;28;20050;-59
2023/03/16 02:00:30;;;;;;;0.20;0.20;;;6.10;99.90;;;;;;5027171;28;20041;-59
2023/03/16 02:03:02;;;;;;;0.10;0.10;;;6.20;99.90;;;;;;5024357;28;20096;-59
2023/03/16 02:05:37;;;;;;;0.10;0.10;;;6.10;99.90;;;;;;5024494;28;20037;-59
2023/03/16 02:08:04;;;;;;;0.20;0.20;;;6.10;99.90;;;;;;5019487;28;20503;-59
2023/03/16 02:10:30;;;;;;;0.00;0.00;;;6.10;99.90;;;;;;5023862;28;20179;-60
2023/03/16 02:12:57;;;;;;;0.10;0.10;;;6.20;99.90;;;;;;5026546;28;20049;-59
2023/03/16 02:15:23;;;;;;;0.10;0.10;;;6.10;99.90;;;;;;5025285;28;20137;-59
2023/03/16 02:17:49;;;;;;;0.10;0.10;;;6.10;99.90;;;;;;5017292;28;20124;-59
2023/03/16 02:20:47;;;;;;;0.10;0.10;;;6.10;99.90;;;;;;5018763;28;20091;-59
2023/03/16 02:23:18;;;;;;;0.20;0.20;;;6.10;99.90;;;;;;5019463;28;20046;-59
2023/03/16 02:25:57;;;;;;;0.10;0.10;;;6.10;99.90;;;;;;5025673;28;20041;-60
2023/03/16 02:28:28;;;;;;;0.20;0.20;;;6.20;99.90;;;;;;5026894;28;20051;-59
2023/03/16 02:30:54;;;;;;;0.20;0.20;;;6.20;99.90;;;;;;5012804;28;20038;-59
2023/03/16 02:33:20;;;;;;;0.47;0.47;;;6.20;99.90;;;;;;5025401;28;20040;-59
2023/03/16 02:35:46;;;;;;;0.10;0.10;;;6.10;99.90;;;;;;5030193;28;20049;-59
2023/03/16 02:38:11;;;;;;;0.25;0.25;;;6.10;99.90;;;;;;5030546;28;20050;-59
2023/03/16 02:40:37;;;;;;;0.10;0.10;;;6.10;99.90;;;;;;5030844;28;20049;-59
2023/03/16 02:43:11;;;;;;;0.43;0.43;;;6.10;99.90;;;;;;5029367;28;20109;-59
2023/03/16 02:45:44;;;;;;;0.10;0.10;;;6.10;99.90;;;;;;5028939;28;20705;-59
2023/03/16 02:48:21;;;;;;;0.10;0.10;;;6.20;99.90;;;;;;5027236;28;20396;-59
2023/03/16 02:50:50;;;;;;;0.03;0.03;;;6.10;99.90;;;;;;5025392;28;20089;-59
2023/03/16 02:53:16;;;;;;;1.10;1.10;;;6.10;99.90;;;;;;5026236;28;20049;-59
2023/03/16 02:55:43;;;;;;;0.35;0.32;;;6.10;99.90;;;;;;5029757;28;20428;-59
2023/03/16 02:58:10;;;;;;;0.10;0.10;;;6.10;99.90;;;;;;5029291;28;20077;-59
2023/03/16 03:00:37;;;;;;;0.32;0.32;;;6.10;99.90;;;;;;5025890;28;20045;-59
2023/03/16 03:03:03;;;;;;;0.00;0.00;;;6.10;99.90;;;;;;5029621;28;20031;-59
2023/03/16 03:05:28;;;;;;;0.10;0.10;;;6.10;99.90;;;;;;5029347;28;20129;-59
2023/03/16 03:07:54;;;;;;;0.65;0.40;;;6.10;99.90;;;;;;5023911;28;20104;-59
2023/03/16 03:10:20;;;;;;;1.35;1.08;;;6.10;99.90;;;;;;5024625;28;20488;-59
2023/03/16 03:12:48;;;;;;;1.83;1.55;;;6.10;99.90;;;;;;5029219;28;20038;-59
2023/03/16 03:15:15;;;;;;;0.00;0.00;;;6.10;99.90;;;;;;5021336;28;20044;-59
2023/03/16 03:17:41;;;;;;;0.10;0.10;;;6.10;99.90;;;;;;5023669;28;20391;-59
2023/03/16 03:20:15;;;;;;;0.17;0.17;;;6.10;99.90;;;;;;5028107;28;20103;-59
2023/03/16 03:22:43;;;;;;;0.10;0.10;;;6.10;99.90;;;;;;5025815;28;20710;-59
2023/03/16 03:25:10;;;;;;;0.20;0.20;;;6.10;99.90;;;;;;5022169;28;20056;-59
2023/03/16 03:27:35;;;;;;;0.10;0.10;;;6.10;99.90;;;;;;5029233;28;20061;-59
2023/03/16 03:30:01;;;;;;;0.25;0.25;;;6.10;99.90;;;;;;5026406;28;20069;-59
2023/03/16 03:32:26;;;;;;;3.42;1.63;;;6.10;99.90;;;;;;5026935;28;20112;-59
2023/03/16 03:34:52;;;;;;;0.28;0.28;;;6.20;99.90;;;;;;5028758;28;20049;-59
2023/03/16 03:37:18;;;;;;;0.10;0.10;;;6.10;99.90;;;;;;5027852;28;20472;-59
2023/03/16 03:39:44;;;;;;;0.10;0.10;;;6.10;99.90;;;;;;5018858;28;20046;-59
2023/03/16 03:42:10;;;;;;;0.10;0.10;;;6.10;99.90;;;;;;5021329;28;20523;-59
2023/03/16 03:44:36;;;;;;;0.10;0.10;;;6.10;99.90;;;;;;5019219;28;20243;-59
2023/03/16 03:47:02;;;;;;;0.10;0.10;;;6.10;99.90;;;;;;5026883;28;20041;-59
2023/03/16 03:49:28;;;;;;;1.08;1.08;;;6.10;99.90;;;;;;5025920;28;20087;-59
2023/03/16 03:51:55;;;;;;;0.20;0.20;;;6.10;99.90;;;;;;5027640;28;20057;-59
2023/03/16 03:54:21;;;;;;;0.10;0.10;;;6.10;99.90;;;;;;5026449;28;20048;-59
2023/03/16 03:56:47;;;;;;;0.10;0.10;;;6.10;99.90;;;;;;5014898;28;20057;-59
2023/03/16 03:59:12;;;;;;;0.10;0.10;;;6.10;99.90;;;;;;5028015;28;20487;-59
2023/03/16 04:01:38;;;;;;;0.10;0.10;;;6.10;99.90;;;;;;5026540;28;20396;-59
2023/03/16 04:04:03;;;;;;;0.10;0.10;;;6.10;99.90;;;;;;5026255;28;20125;-59
2023/03/16 04:06:29;;;;;;;0.20;0.20;;;6.10;99.90;;;;;;5027125;28;20494;-59
2023/03/16 04:08:55;;;;;;;0.10;0.10;;;6.00;99.90;;;;;;5026904;28;20789;-59
2023/03/16 04:11:20;;;;;;;0.30;0.30;;;6.00;99.90;;;;;;5027620;28;20045;-59
2023/03/16 04:13:46;;;;;;;1.20;1.20;;;6.10;99.90;;;;;;5024154;28;20095;-59
2023/03/16 04:16:15;;;;;;;0.35;0.35;;;6.00;99.90;;;;;;5018457;28;20406;-59
2023/03/16 04:18:41;;;;;;;0.10;0.10;;;6.00;99.90;;;;;;5017094;28;20076;-59
2023/03/16 04:21:11;;;;;;;0.10;0.10;;;6.00;99.90;;;;;;5025354;28;20076;-59
2023/03/16 04:23:37;;;;;;;0.43;0.40;;;6.00;99.90;;;;;;5028739;28;20052;-61
2023/03/16 04:26:04;;;;;;;0.10;0.10;;;6.00;99.90;;;;;;5014320;28;20049;-61
2023/03/16 04:28:31;;;;;;;0.10;0.10;;;6.00;99.90;;;;;;5028838;28;20067;-62
2023/03/16 04:31:01;;;;;;;0.10;0.10;;;6.00;99.90;;;;;;5027106;28;20095;-62
2023/03/16 04:33:27;;;;;;;0.10;0.10;;;5.90;99.90;;;;;;5029007;28;20405;-62
2023/03/16 04:35:53;;;;;;;0.10;0.10;;;5.90;99.90;;;;;;5029102;28;20045;-62
2023/03/16 04:38:18;;;;;;;0.00;0.00;;;5.90;99.90;;;;;;5028404;28;20119;-62
2023/03/16 04:40:44;;;;;;;0.40;0.40;;;5.90;99.90;;;;;;5028120;28;20040;-61
2023/03/16 04:43:10;;;;;;;0.00;0.00;;;5.80;99.90;;;;;;5028498;28;20049;-61
2023/03/16 04:45:35;;;;;;;0.10;0.10;;;5.90;99.90;;;;;;5025642;28;20041;-62
2023/03/16 04:48:01;;;;;;;0.30;0.30;;;5.90;99.90;;;;;;5028171;28;20144;-62
2023/03/16 04:50:26;;;;;;;0.93;0.50;;;5.90;99.90;;;;;;5028509;28;20037;-62
2023/03/16 04:52:52;;;;;;;0.10;0.10;;;5.90;99.90;;;;;;5026642;28;20128;-62
2023/03/16 04:55:17;;;;;;;2.15;0.38;;;5.80;99.90;;;;;;5028095;28;20661;-61
2023/03/16 04:57:43;;;;;;;0.10;0.10;;;5.80;99.90;;;;;;5028039;28;20033;-61
2023/03/16 05:00:11;;;;;;;0.10;0.10;;;5.80;99.90;;;;;;5028240;28;20049;-62
2023/03/16 05:02:37;;;;;;;0.10;0.10;;;5.90;99.90;;;;;;5026669;28;20041;-62
2023/03/16 05:05:04;;;;;;;0.10;0.10;;;5.90;99.90;;;;;;5028047;28;20037;-61
2023/03/16 05:07:30;;;;;;;0.10;0.10;;;5.90;99.90;;;;;;5022882;28;20042;-62
2023/03/16 05:09:55;;;;;;;0.10;0.10;;;5.80;99.90;;;;;;5028362;28;20707;-62
2023/03/16 05:12:21;;;;;;;0.22;0.22;;;5.90;99.90;;;;;;5027498;28;20045;-61
2023/03/16 05:14:47;;;;;;;0.43;0.43;;;5.90;99.90;;;;;;5025301;28;20830;-61
2023/03/16 05:17:13;;;;;;;0.10;0.10;;;5.90;99.90;;;;;;5021577;28;20048;-62
2023/03/16 05:19:39;;;;;;;0.10;0.10;;;5.90;99.90;;;;;;5018786;28;20046;-61
2023/03/16 05:22:05;;;;;;;0.40;0.40;;;5.80;99.90;;;;;;5019933;28;20045;-62
2023/03/16 05:24:31;;;;;;;3.20;1.20;;;5.80;99.90;;;;;;5025120;28;20045;-61
2023/03/16 05:26:57;;;;;;;0.10;0.10;;;5.80;99.90;;;;;;5024625;28;20073;-61
2023/03/16 05:29:23;;;;;;;0.10;0.10;;;5.70;99.90;;;;;;5025203;28;20048;-61
2023/03/16 05:31:49;;;;;;;0.15;0.15;;;5.70;99.90;;;;;;5027225;28;20511;-62
2023/03/16 05:34:15;;;;;;;0.40;0.40;;;5.70;99.90;;;;;;5026784;28;20132;-62
2023/03/16 05:36:41;;;;;;;0.10;0.10;;;5.70;99.90;;;;;;5026486;28;20151;-61
2023/03/16 05:39:07;;;;;;;0.10;0.10;;;5.80;99.90;;;;;;5027228;28;20096;-62
2023/03/16 05:41:33;;;;;;;0.15;0.15;;;5.70;99.90;;;;;;5026937;28;20413;-62
2023/03/16 05:43:58;;;;;;;0.00;0.00;;;5.70;99.90;;;;;;5026325;28;20045;-61
2023/03/16 05:46:24;;;;;;;0.20;0.20;;;5.70;99.90;;;;;;5026086;28;20041;-62
2023/03/16 05:48:49;;;;;;;0.68;0.68;;;5.60;99.90;;;;;;5027034;28;20095;-62
2023/03/16 05:51:15;;;;;;;0.30;0.30;;;5.70;99.90;;;;;;5027699;28;20144;-61
2023/03/16 05:53:41;;;;;;;0.10;0.10;;;5.70;99.90;;;;;;5022346;28;20438;-61
2023/03/16 05:56:07;;;;;;;0.13;0.13;;;5.70;99.90;;;;;;5025491;28;20041;-61
2023/03/16 05:58:32;;;;;;;0.10;0.10;;;5.60;99.90;;;;;;5026552;28;20037;-61
2023/03/16 06:01:00;;;;;;;0.10;0.10;;;5.60;99.90;;;;;;5027189;28;20037;-61
2023/03/16 06:03:26;;;;;;;0.45;0.45;;;5.60;99.90;;;;;;5027042;28;20049;-62
2023/03/16 06:05:52;;;;;;;1.45;1.35;;;5.70;99.90;;;;;;5011107;28;20049;-62
2023/03/16 06:08:18;;;;;;;0.00;0.00;;;5.70;99.90;;;;;;5030662;28;20026;-61
2023/03/16 06:10:47;;;;;;;1.60;0.77;;;5.70;99.90;;;;;;5031735;28;20052;-61
2023/03/16 06:13:12;;;;;;;0.10;0.10;;;5.70;99.90;;;;;;5030247;28;20053;-62
2023/03/16 06:15:38;;;;;;;0.13;0.13;;;5.70;99.90;;;;;;5029362;28;20052;-62
2023/03/16 06:18:03;;;;;;;0.32;0.30;;;5.70;99.90;;;;;;5031161;28;20089;-62
2023/03/16 06:20:29;;;;;;;0.20;0.20;;;5.80;99.90;;;;;;5027574;28;20166;-62
2023/03/16 06:22:54;;;;;;;0.05;0.05;;;5.70;99.90;;;;;;5029133;28;20037;-62
2023/03/16 06:25:20;;;;;;;0.13;0.13;;;5.80;99.90;;;;;;5029505;28;20045;-62
2023/03/16 06:27:47;;;;;;;0.35;0.35;;;5.80;99.90;;;;;;5024592;28;20076;-62
2023/03/16 06:30:14;;;;;;;0.10;0.10;;;5.80;99.90;;;;;;5025982;28;20041;-62
2023/03/16 06:32:44;;;;;;;0.10;0.10;;;5.70;99.90;;;;;;5014590;28;20038;-61
2023/03/16 06:35:11;;;;;;;0.20;0.20;;;5.70;99.90;;;;;;5026915;28;20493;-62
2023/03/16 06:37:36;;;;;;;0.20;0.20;;;5.70;99.90;;;;;;5028458;28;20052;-61
2023/03/16 06:40:02;;;;;;;0.20;0.20;;;5.70;99.90;;;;;;5026740;28;20038;-62
2023/03/16 06:42:28;;;;;;;0.00;0.00;;;5.70;99.90;;;;;;5026373;28;20037;-62
2023/03/16 06:44:54;;;;;;;0.10;0.10;;;5.70;99.90;;;;;;5027936;28;20092;-61
2023/03/16 06:47:20;;;;;;;0.30;0.30;;;5.70;99.90;;;;;;5031529;28;20045;-62
2023/03/16 06:49:46;;;;;;;0.10;0.10;;;5.80;99.90;;;;;;5030906;28;20119;-62
2023/03/16 06:52:12;;;;;;;0.50;0.50;;;5.80;99.90;;;;;;5029418;28;20060;-62
2023/03/16 06:54:39;;;;;;;0.08;0.08;;;5.70;99.90;;;;;;5029981;28;20087;-62
2023/03/16 06:57:06;;;;;;;0.10;0.10;;;5.70;99.90;;;;;;5030810;28;20060;-62
2023/03/16 06:59:31;;;;;;;0.10;0.10;;;5.70;99.90;;;;;;5028606;28;20033;-62
2023/03/16 07:01:57;;;;;;;0.10;0.10;;;5.70;99.90;;;;;;5030790;28;20477;-62
2023/03/16 07:04:23;;;;;;;0.30;0.30;;;5.70;99.90;;;;;;5030593;28;20045;-62
2023/03/16 07:06:49;;;;;;;0.10;0.10;;;5.70;99.90;;;;;;5028056;28;20103;-62
2023/03/16 07:09:14;;;;;;;2.28;1.35;;;5.70;99.90;;;;;;5026606;28;20050;-62
2023/03/16 07:11:40;;;;;;;0.10;0.10;;;5.70;99.90;;;;;;5018822;28;20057;-62
2023/03/16 07:14:06;;;;;;;0.82;0.82;;;5.80;99.90;;;;;;5024315;28;20073;-62
2023/03/16 07:16:31;;;;;;;3.25;2.20;;;5.80;99.90;;;;;;5029561;28;20045;-62
2023/03/16 07:18:57;;;;;;;0.88;0.45;;;5.70;99.90;;;;;;5025781;28;20505;-62
2023/03/16 07:21:22;;;;;;;0.10;0.10;;;5.70;99.90;;;;;;5025129;28;20095;-61
2023/03/16 07:23:49;;;;;;;0.10;0.10;;;5.80;99.90;;;;;;5027184;28;20164;-61
2023/03/16 07:26:14;;;;;;;4.40;1.17;;;5.80;99.90;;;;;;5029918;28;20052;-62
2023/03/16 07:28:40;;;;;;;0.10;0.10;;;5.70;99.90;;;;;;5028695;28;20523;-62
2023/03/16 07:31:06;;;;;;;0.10;0.10;;;5.80;99.90;;;;;;5025663;28;20045;-62
2023/03/16 07:33:33;;;;;;;0.25;0.25;;;5.80;99.90;;;;;;5028510;28;20516;-62
2023/03/16 07:36:02;;;;;;;0.10;0.10;;;5.80;99.90;;;;;;5028192;28;20049;-61
2023/03/16 07:38:29;;;;;;;0.10;0.10;;;5.80;99.90;;;;;;5029341;28;20436;-62
2023/03/16 07:40:54;;;;;;;0.10;0.10;;;5.80;99.90;;;;;;5024313;28;20052;-62
2023/03/16 07:43:20;;;;;;;0.10;0.10;;;5.80;99.90;;;;;;5026898;28;20625;-62
2023/03/16 07:45:50;;;;;;;0.40;0.40;;;5.80;99.90;;;;;;5029170;28;20045;-62
2023/03/16 07:48:16;;;;;;;0.40;0.40;;;5.80;99.90;;;;;;5024275;28;20064;-62
2023/03/16 07:50:45;;;;;;;0.10;0.10;;;5.80;99.90;;;;;;5026613;28;20061;-62
2023/03/16 07:53:10;;;;;;;0.10;0.10;;;5.80;99.90;;;;;;5029116;28;20041;-62
2023/03/16 07:55:37;;;;;;;0.20;0.20;;;5.90;99.90;;;;;;5027355;28;20057;-62
2023/03/16 07:58:05;;;;;;;1.27;0.73;;;5.80;99.90;;;;;;5025038;28;20426;-62
2023/03/16 08:00:32;;;;;;;0.10;0.10;;;5.90;99.90;;;;;;5029477;28;20124;-62
2023/03/16 08:02:58;;;;;;;0.20;0.20;;;5.90;99.90;;;;;;5026752;28;20124;-61
2023/03/16 08:05:23;;;;;;;0.10;0.10;;;5.90;99.90;;;;;;5028544;28;20054;-62
2023/03/16 08:07:50;;;;;;;0.20;0.20;;;5.90;99.90;;;;;;5028350;28;20060;-62
2023/03/16 08:10:16;;;;;;;0.10;0.10;;;5.90;99.90;;;;;;5030010;28;20045;-63
2023/03/16 08:12:42;;;;;;;0.10;0.10;;;5.90;99.90;;;;;;5028285;28;20049;-61
2023/03/16 08:15:09;;;;;;;0.15;0.15;;;5.90;99.90;;;;;;5027690;28;20918;-61
2023/03/16 08:17:35;;;;;;;1.27;1.27;;;5.90;99.90;;;;;;5026708;28;20056;-62
2023/03/16 08:20:05;;;;;;;0.25;0.25;;;5.90;99.90;;;;;;5018923;28;20077;-62
2023/03/16 08:22:31;;;;;;;2.28;0.68;;;5.90;99.90;;;;;;5025205;28;20038;-62
2023/03/16 08:24:57;;;;;;;0.10;0.10;;;5.90;99.90;;;;;;5027554;28;20069;-62
2023/03/16 08:27:24;;;;;;;0.10;0.10;;;5.90;99.90;;;;;;5025629;28;20034;-62
2023/03/16 08:29:53;;;;;;;1.13;1.02;;;5.90;99.90;;;;;;5023982;28;20054;-61
2023/03/16 08:32:19;;;;;;;0.22;0.22;;;5.90;99.90;;;;;;5027879;28;20104;-62
2023/03/16 08:34:44;;;;;;;0.10;0.10;;;6.00;99.90;;;;;;5027407;28;20076;-62
2023/03/16 08:37:11;;;;;;;0.10;0.10;;;6.00;99.90;;;;;;5026902;28;20064;-62
2023/03/16 08:39:42;;;;;;;0.63;0.63;;;6.00;99.90;;;;;;5023871;28;20064;-62
2023/03/16 08:42:09;;;;;;;0.10;0.10;;;6.00;99.90;;;;;;5023673;28;20041;-60
2023/03/16 08:44:35;;;;;;;0.10;0.10;;;6.00;99.90;;;;;;5023880;28;20616;-61
2023/03/16 08:47:01;;;;;;;0.65;0.65;;;6.00;99.90;;;;;;5026227;28;20052;-61
2023/03/16 08:49:28;;;;;;;0.10;0.10;;;6.10;99.90;;;;;;5023535;28;20557;-62
2023/03/16 08:51:54;;;;;;;0.85;0.85;;;6.00;99.90;;;;;;5025901;28;20132;-61
2023/03/16 08:54:19;;;;;;;0.10;0.10;;;6.00;99.90;;;;;;5017809;28;20133;-61
2023/03/16 08:56:45;;;;;;;0.10;0.10;;;6.00;99.90;;;;;;5027649;28;20045;-59
2023/03/16 08:59:10;;;;;;;0.10;0.10;;;6.10;99.90;;;;;;5025706;28;20049;-59
2023/03/16 09:01:36;;;;;;;0.15;0.15;;;6.10;99.90;;;;;;5014566;28;20053;-59
2023/03/16 09:04:02;;;;;;;0.32;0.32;;;6.10;99.90;;;;;;5024186;28;20054;-59
2023/03/16 09:06:27;;;;;;;9.23;2.42;;;6.10;99.90;;;;;;5027440;28;20649;-59
2023/03/16 09:08:54;;;;;;;0.10;0.10;;;6.20;99.90;;;;;;5028049;28;20045;-59
2023/03/16 09:11:21;;;;;;;1.00;0.60;;;6.20;99.90;;;;;;5028099;28;20071;-61
2023/03/16 09:13:47;;;;;;;0.20;0.20;;;6.30;99.90;;;;;;5026587;28;20041;-61
2023/03/16 09:16:14;;;;;;;0.32;0.32;;;6.20;99.90;;;;;;5021737;28;20048;-61
2023/03/16 09:18:41;;;;;;;1.67;1.00;;;6.30;99.90;;;;;;5026268;28;20046;-62
2023/03/16 09:21:09;;;;;;;0.10;0.10;;;6.30;99.90;;;;;;5015024;28;20048;-61
2023/03/16 09:23:36;;;;;;;0.20;0.20;;;6.30;99.90;;;;;;5027250;28;20091;-61
2023/03/16 09:26:06;;;;;;;0.00;0.00;;;6.30;99.90;;;;;;5019102;28;20057;-61
2023/03/16 09:28:33;;;;;;;0.10;0.10;;;6.30;99.90;;;;;;5022186;28;20056;-62
2023/03/16 09:31:00;;;;;;;0.10;0.10;;;6.30;99.90;;;;;;5018726;28;20046;-62
2023/03/16 09:33:27;;;;;;;1.75;0.73;;;6.30;99.90;;;;;;5024612;28;20038;-61
2023/03/16 09:35:54;;;;;;;0.17;0.17;;;6.30;99.90;;;;;;5025448;28;20038;-62
2023/03/16 09:38:20;;;;;;;0.22;0.22;;;6.30;99.90;;;;;;5028035;28;20474;-61
2023/03/16 09:40:54;;;;;;;0.30;0.30;;;6.30;99.90;;;;;;5025466;28;20086;-62
2023/03/16 09:43:44;;;;;;;0.00;0.00;;;6.30;99.90;;;;;;5021094;28;20076;-61
2023/03/16 09:46:26;;;;;;;0.00;0.00;;;6.30;99.90;;;;;;5022775;28;20049;-62
2023/03/16 09:48:56;;;;;;;0.15;0.15;;;6.30;99.90;;;;;;5018261;28;20117;-61
2023/03/16 09:51:44;;;;;;;0.10;0.10;;;6.40;99.90;;;;;;5024927;28;20103;-61
2023/03/16 09:54:21;;;;;;;0.10;0.10;;;6.40;99.90;;;;;;5016812;28;20053;-61
2023/03/16 09:56:49;;;;;;;0.10;0.10;;;6.40;99.90;;;;;;5027196;28;20053;-61
2023/03/16 09:59:17;;;;;;;0.85;0.68;;;6.40;99.90;;;;;;5021822;28;20494;-61
2023/03/16 10:01:52;;;;;;;0.70;0.52;;;6.40;99.90;;;;;;5025198;28;20042;-61
2023/03/16 10:04:30;;;;;;;0.10;0.10;;;6.40;99.90;;;;;;5025930;28;20420;-61
2023/03/16 10:07:01;;;;;;;0.10;0.10;;;6.50;99.90;;;;;;5026508;28;20045;-62
2023/03/16 10:09:49;;;;;;;0.13;0.13;;;6.50;99.90;;;;;;5011127;28;20519;-62
2023/03/16 10:12:15;;;;;;;0.22;0.15;;;6.50;99.90;;;;;;5024176;28;20056;-62
2023/03/16 10:15:05;;;;;;;0.98;0.85;;;6.60;99.90;;;;;;5025354;28;20041;-62
2023/03/16 10:17:43;;;;;;;0.80;0.80;;;6.60;99.90;;;;;;5024568;28;20038;-62
2023/03/16 10:20:19;;;;;;;0.10;0.10;;;6.60;99.90;;;;;;5020116;28;20406;-62
2023/03/16 10:22:47;;;;;;;0.10;0.10;;;6.60;99.90;;;;;;5020479;28;20130;-62
2023/03/16 10:25:21;;;;;;;0.13;0.13;;;6.60;99.90;;;;;;5022502;28;20262;-63
2023/03/16 10:27:47;;;;;;;0.13;0.13;;;6.70;99.90;;;;;;5023177;28;20104;-60
2023/03/16 10:30:13;;;;;;;0.15;0.15;;;6.70;99.90;;;;;;5024830;28;20049;-60
2023/03/16 10:32:39;;;;;;;0.10;0.10;;;6.80;99.90;;;;;;5025481;28;20056;-60
2023/03/16 10:35:32;;;;;;;8.43;1.85;;;6.90;99.90;;;;;;5026514;28;20041;-60
2023/03/16 10:37:58;;;;;;;0.22;0.22;;;7.00;99.90;;;;;;5020097;28;20060;-60
2023/03/16 10:40:25;;;;;;;0.15;0.15;;;7.00;99.90;;;;;;5026136;28;20045;-61
2023/03/16 10:42:50;;;;;;;2.05;1.45;;;7.10;99.90;;;;;;5021041;28;20375;-60
2023/03/16 10:45:28;;;;;;;0.10;0.10;;;7.20;99.90;;;;;;5023771;28;20033;-61
2023/03/16 10:48:11;;;;;;;0.20;0.20;;;7.20;99.90;;;;;;5020060;28;20509;-61
2023/03/16 10:50:37;;;;;;;0.65;0.65;;;7.30;99.90;;;;;;5019617;28;20079;-60
2023/03/16 10:53:03;;;;;;;0.20;0.20;;;7.30;99.90;;;;;;5019329;28;20073;-61
2023/03/16 10:55:33;;;;;;;0.65;0.65;;;7.40;99.90;;;;;;5022074;28;20099;-61
2023/03/16 10:58:00;;;;;;;0.10;0.10;;;7.40;99.90;;;;;;5024762;28;20045;-60
2023/03/16 11:00:29;;;;;;;0.15;0.15;;;7.40;99.90;;;;;;5026305;28;20125;-60
2023/03/16 11:02:58;;;;;;;0.68;0.68;;;7.40;99.90;;;;;;5025744;28;20060;-60
2023/03/16 11:05:32;;;;;;;0.20;0.20;;;7.50;99.90;;;;;;5025892;28;20699;-60
2023/03/16 11:08:09;;;;;;;0.10;0.10;;;7.50;99.90;;;;;;5028540;28;20048;-60
2023/03/16 11:10:41;;;;;;;0.20;0.20;;;7.50;99.90;;;;;;5029073;28;20054;-60
2023/03/16 11:13:16;;;;;;;0.20;0.20;;;7.50;99.90;;;;;;5027038;28;20053;-60
2023/03/16 11:16:20;;;;;;;0.00;0.00;;;7.60;99.90;;;;;;5018361;28;20637;-60
2023/03/16 11:18:56;;;;;;;0.45;0.45;;;7.60;99.90;;;;;;5023703;28;20114;-60
2023/03/16 11:21:53;;;;;;;5.25;1.65;;;7.60;99.90;;;;;;5021371;28;20073;-60
2023/03/16 11:24:25;;;;;;;0.10;0.10;;;7.70;99.90;;;;;;5020530;28;20057;-60
2023/03/16 11:26:55;;;;;;;0.20;0.20;;;7.80;99.90;;;;;;5016307;28;20084;-60
2023/03/16 11:29:36;;;;;;;1.80;1.65;;;7.90;99.90;;;;;;5023521;28;20063;-60
2023/03/16 11:32:19;;;;;;;0.10;0.10;;;8.00;99.90;;;;;;5018271;28;20103;-60
2023/03/16 11:34:46;;;;;;;0.63;0.63;;;8.10;99.90;;;;;;5027716;28;20045;-59
2023/03/16 11:37:41;;;;;;;0.20;0.20;;;8.20;99.90;;;;;;5019839;28;20103;-60
2023/03/16 11:40:19;;;;;;;0.10;0.10;;;8.40;99.90;;;;;;5027112;28;20084;-59
2023/03/16 11:42:57;;;;;;;0.10;0.10;;;8.40;99.90;;;;;;5030078;28;20037;-61
2023/03/16 11:45:41;;;;;;;0.10;0.10;;;8.50;99.90;;;;;;5026902;28;20080;-61
2023/03/16 11:48:19;;;;;;;;;;;8.60;99.90;;;;;;5024245;28;20052;-60
2023/03/16 11:50:57;;;;;;;0.20;0.20;;;8.70;99.90;;;;;;5029392;28;19948;-61
2023/03/16 11:53:40;;;;;;;0.22;0.22;;;8.80;99.90;;;;;;5026260;28;20050;-61
2023/03/16 11:56:20;;;;;;;0.08;0.08;;;8.90;99.90;;;;;;5023124;28;20045;-61
2023/03/16 11:59:15;;;;;;;0.00;0.00;;;8.90;99.90;;;;;;5030240;28;20132;-61
2023/03/16 12:02:12;;;;;;;0.00;0.00;;;8.90;99.90;;;;;;5026659;28;20057;-61
2023/03/16 12:04:43;;;;;;;0.00;0.00;;;9.00;99.90;;;;;;5024253;28;20046;-60
2023/03/16 12:07:30;;;;;;;0.47;0.47;;;9.00;99.90;;;;;;5021633;28;20174;-63
2023/03/16 12:10:31;;;;;;;0.63;0.50;;;9.00;99.90;;;;;;5022246;28;20493;-61
2023/03/16 12:13:16;;;;;;;0.30;0.30;;;9.00;99.90;;;;;;5021191;28;20084;-61
2023/03/16 12:15:58;;;;;;;0.10;0.10;;;9.10;99.90;;;;;;5023485;28;20088;-61
2023/03/16 12:18:46;;;;;;;0.52;0.52;;;9.10;99.90;;;;;;5019502;28;20037;-61
2023/03/16 12:21:20;;;;;;;0.10;0.10;;;9.10;99.90;;;;;;5025805;28;20124;-61
2023/03/16 12:24:05;;;;;;;0.47;0.47;;;9.10;99.90;;;;;;5028501;28;20167;-61
2023/03/16 12:26:35;;;;;;;1.35;0.82;;;9.10;99.90;;;;;;5027315;28;20432;-61
2023/03/16 12:29:37;;;;;;;0.15;0.15;;;9.20;99.90;;;;;;5028661;28;20045;-61
2023/03/16 12:32:17;;;;;;;0.10;0.10;;;9.10;99.90;;;;;;5027667;28;20079;-61
2023/03/16 12:34:52;;;;;;;0.10;0.10;;;9.20;99.90;;;;;;5028168;28;20047;-61
2023/03/16 12:37:17;;;;;;;0.10;0.10;;;9.20;99.90;;;;;;5026536;28;20142;-61
2023/03/16 12:40:14;;;;;;;0.10;0.10;;;9.20;99.90;;;;;;5027688;28;20053;-61
2023/03/16 12:43:15;;;;;;;7.78;1.42;;;9.20;99.90;;;;;;5026639;28;20445;-61
2023/03/16 12:45:57;;;;;;;0.10;0.10;;;9.10;99.90;;;;;;5028959;28;20073;-61
2023/03/16 12:48:36;;;;;;;0.13;0.13;;;9.20;99.90;;;;;;5027002;28;20064;-61
2023/03/16 12:51:03;;;;;;;0.10;0.10;;;9.20;99.90;;;;;;5028005;28;20053;-61
2023/03/16 12:53:54;;;;;;;0.20;0.20;;;9.20;99.90;;;;;;5027460;28;20468;-61
2023/03/16 12:56:48;;;;;;;0.20;0.20;;;9.10;99.90;;;;;;5027271;28;20516;-61
2023/03/16 12:59:19;;;;;;;0.10;0.10;;;9.20;99.90;;;;;;5029300;28;20056;-61
2023/03/16 13:01:50;;;;;;;0.10;0.10;;;9.20;99.90;;;;;;5028958;28;20049;-61
2023/03/16 13:04:22;;;;;;;1.02;0.93;;;9.30;99.90;;;;;;5025299;28;20037;-61
2023/03/16 13:07:29;;;;;;;0.10;0.10;;;9.30;99.90;;;;;;5029357;28;20045;-61
2023/03/16 13:10:01;;;;;;;0.15;0.15;;;9.30;99.90;;;;;;5021864;28;20057;-61
2023/03/16 13:12:37;;;;;;;0.30;0.30;;;9.50;99.90;;;;;;5026461;28;20073;-61